createdAt,value
2018-02-06T00:01:11.059Z,0.72
2018-02-06T00:03:38.541Z,0.77
2018-02-06T00:06:06.012Z,0.73
2018-02-06T00:08:33.490Z,0.71
2018-02-06T00:11:00.958Z,0.63
2018-02-06T00:13:28.505Z,0.55
2018-02-06T00:15:55.982Z,0.59
2018-02-06T00:18:23.471Z,0.52
2018-02-06T00:20:50.954Z,0.58
2018-02-06T00:23:18.412Z,0.54
2018-02-06T00:25:45.899Z,0.48
2018-02-06T00:28:13.376Z,0.54
2018-02-06T00:30:40.862Z,0.47
2018-02-06T00:33:08.351Z,0.53
2018-02-06T00:35:35.817Z,0.51
2018-02-06T00:38:03.266Z,0.42
2018-02-06T00:40:30.754Z,0.39
2018-02-06T00:42:58.213Z,0.42
2018-02-06T00:45:25.702Z,0.44
2018-02-06T00:47:53.261Z,0.43
2018-02-06T00:50:20.739Z,0.49
2018-02-06T00:52:48.238Z,0.52
2018-02-06T00:55:15.759Z,0.46
2018-02-06T00:57:43.267Z,0.36
2018-02-06T01:00:10.834Z,0.32
2018-02-06T01:02:38.305Z,0.42
2018-02-06T01:05:05.764Z,0.38
2018-02-06T01:07:33.261Z,0.28
2018-02-06T01:10:00.736Z,0.32
2018-02-06T01:12:28.204Z,0.28
2018-02-06T01:14:55.722Z,0.23
2018-02-06T01:17:23.223Z,0.21
2018-02-06T01:19:50.750Z,0.26
2018-02-06T01:22:18.286Z,0.30
2018-02-06T01:24:45.746Z,0.30
2018-02-06T01:27:13.275Z,0.35
2018-02-06T01:29:40.741Z,0.34
2018-02-06T01:32:08.237Z,0.31
2018-02-06T01:34:35.727Z,0.20
2018-02-06T01:37:03.333Z,0.15
2018-02-06T01:39:30.778Z,0.23
2018-02-06T01:41:58.267Z,0.21
2018-02-06T01:44:25.916Z,0.11
2018-02-06T01:46:53.472Z,0.15
2018-02-06T01:49:20.931Z,0.10
2018-02-06T01:51:48.385Z,0.12
2018-02-06T01:54:15.867Z,0.06
2018-02-06T01:56:43.324Z,0.16
2018-02-06T01:59:10.803Z,0.19
2018-02-06T02:01:38.405Z,0.14
2018-02-06T02:04:05.859Z,0.18
2018-02-06T02:06:33.306Z,0.12
2018-02-06T02:09:00.848Z,0.06
2018-02-06T02:11:28.519Z,0.03
2018-02-06T02:13:56.086Z,0.04
2018-02-06T02:16:23.563Z,0.06
2018-02-06T02:18:51.030Z,0.07
2018-02-06T02:21:18.529Z,0.02
2018-02-06T02:23:46.147Z,0.07
2018-02-06T02:26:13.614Z,0.08
2018-02-06T02:28:41.130Z,-0.04
2018-02-06T02:31:08.604Z,-0.10
2018-02-06T02:33:36.067Z,-0.11
2018-02-06T02:36:03.550Z,-0.12
2018-02-06T02:38:31.018Z,-0.08
2018-02-06T02:40:58.541Z,-0.06
2018-02-06T04:38:58.500Z,-0.15
2018-02-06T04:41:25.982Z,-0.20
2018-02-06T04:43:53.436Z,-0.07
2018-02-06T04:46:20.900Z,-0.08
2018-02-06T04:48:48.431Z,-0.15
2018-02-06T04:51:15.893Z,-0.15
2018-02-06T04:53:43.374Z,-0.19
2018-02-06T04:56:10.849Z,-0.16
2018-02-06T04:58:38.310Z,-0.16
2018-02-06T05:01:07.720Z,-0.22
2018-02-06T05:03:35.210Z,-0.20
2018-02-06T05:06:02.675Z,-0.30
2018-02-06T05:08:30.199Z,-0.28
2018-02-06T05:10:57.654Z,-0.21
2018-02-06T05:13:25.115Z,-0.17
2018-02-06T05:15:52.588Z,-0.14
2018-02-06T05:18:20.039Z,-0.21
2018-02-06T05:20:47.514Z,-0.19
2018-02-06T05:23:14.969Z,-0.32
2018-02-06T05:25:42.428Z,-0.23
2018-02-06T05:28:09.884Z,-0.21
2018-02-06T05:30:37.367Z,-0.24
2018-02-06T05:33:04.818Z,-0.29
2018-02-06T05:35:32.288Z,-0.23
2018-02-06T05:37:59.765Z,-0.31
2018-02-06T05:40:27.233Z,-0.35
2018-02-06T05:42:54.696Z,-0.31
2018-02-06T05:45:22.190Z,-0.32
2018-02-06T05:47:49.671Z,-0.27
2018-02-06T05:50:17.117Z,-0.34
2018-02-06T05:52:44.591Z,-0.33
2018-02-06T05:55:12.147Z,-0.28
2018-02-06T05:57:39.607Z,-0.21
2018-02-06T06:00:07.079Z,-0.27
2018-02-06T06:02:34.535Z,-0.38
2018-02-06T06:05:02.003Z,-0.35
2018-02-06T06:07:29.473Z,-0.26
2018-02-06T06:09:56.951Z,-0.30
2018-02-06T06:12:24.510Z,-0.29
2018-02-06T06:14:51.993Z,-0.30
2018-02-06T06:17:19.451Z,-0.26
2018-02-06T06:19:46.912Z,-0.31
2018-02-06T06:22:14.370Z,-0.33
2018-02-06T06:24:41.838Z,-0.39
2018-02-06T06:27:09.315Z,-0.29
2018-02-06T06:29:36.774Z,-0.33
2018-02-06T06:32:04.238Z,-0.26
2018-02-06T06:34:31.751Z,-0.19
2018-02-06T06:36:59.212Z,-0.15
2018-02-06T06:39:26.682Z,-0.24
2018-02-06T06:41:54.144Z,-0.27
2018-02-06T06:44:21.610Z,-0.17
2018-02-06T06:46:49.069Z,-0.22
2018-02-06T06:49:16.579Z,-0.21
2018-02-06T06:51:44.054Z,-0.26
2018-02-06T06:54:11.529Z,-0.23
2018-02-06T06:56:38.998Z,-0.13
2018-02-06T06:59:06.546Z,-0.06
2018-02-06T07:01:34.078Z,-0.03
2018-02-06T07:04:01.551Z,-0.07
2018-02-06T07:06:29.076Z,-0.05
2018-02-06T07:08:56.664Z,-0.04
2018-02-06T07:11:24.126Z,0.06
2018-02-06T07:13:51.587Z,0.03
2018-02-06T07:16:19.065Z,0.07
2018-02-06T07:18:46.538Z,0.11
2018-02-06T07:21:13.990Z,0.15
2018-02-06T07:23:41.482Z,0.26
2018-02-06T07:26:08.943Z,0.23
2018-02-06T07:28:36.421Z,0.28
2018-02-06T07:31:03.879Z,0.34
2018-02-06T07:33:31.329Z,0.45
2018-02-06T07:35:58.787Z,0.44
2018-02-06T07:38:26.268Z,0.50
2018-02-06T07:40:53.718Z,0.51
2018-02-06T07:43:21.183Z,0.53
2018-02-06T07:45:48.733Z,0.55
2018-02-06T07:48:16.191Z,0.60
2018-02-06T07:50:43.674Z,0.67
2018-02-06T07:53:11.148Z,0.76
2018-02-06T07:55:38.587Z,0.83
2018-02-06T07:58:06.077Z,0.90
2018-02-06T08:00:33.526Z,0.97
2018-02-06T08:03:00.984Z,1.30
2018-02-06T08:05:28.458Z,1.51
2018-02-06T08:07:55.935Z,1.33
2018-02-06T08:10:23.424Z,1.21
2018-02-06T08:12:50.917Z,1.18
2018-02-06T08:15:18.395Z,1.11
2018-02-06T08:17:45.870Z,1.06
2018-02-06T08:20:19.195Z,1.12
2018-02-06T08:22:46.664Z,1.09
2018-02-06T08:25:14.164Z,1.12
2018-02-06T08:27:41.642Z,1.18
2018-02-06T08:30:09.133Z,1.29
2018-02-06T08:32:36.613Z,1.29
2018-02-06T08:35:04.084Z,1.23
2018-02-06T08:37:31.608Z,1.21
2018-02-06T08:39:59.136Z,1.06
2018-02-06T08:42:26.674Z,1.01
2018-02-06T08:44:54.147Z,1.08
2018-02-06T08:47:21.606Z,1.10
2018-02-06T08:49:49.088Z,1.11
2018-02-06T08:52:16.623Z,1.03
2018-02-06T08:54:44.110Z,1.02
2018-02-06T08:57:11.696Z,0.96
2018-02-06T08:59:39.154Z,1.03
2018-02-06T09:02:06.636Z,1.03
2018-02-06T09:04:34.115Z,1.07
2018-02-06T09:07:01.579Z,1.12
2018-02-06T09:09:29.083Z,1.16
2018-02-06T09:11:56.538Z,1.05
2018-02-06T09:14:23.999Z,0.97
2018-02-06T09:16:51.492Z,0.93
2018-02-06T09:19:18.964Z,0.91
2018-02-06T09:21:46.447Z,0.82
2018-02-06T09:24:13.941Z,0.87
2018-02-06T09:26:41.423Z,0.82
2018-02-06T09:29:08.893Z,0.86
2018-02-06T09:31:36.380Z,0.90
2018-02-06T09:34:03.843Z,0.90
2018-02-06T09:36:31.374Z,0.99
2018-02-06T09:38:59.110Z,0.93
2018-02-06T09:41:26.590Z,0.96
2018-02-06T09:43:54.086Z,1.09
2018-02-06T09:46:21.568Z,1.05
2018-02-06T09:48:49.032Z,1.07
2018-02-06T09:51:16.507Z,1.24
2018-02-06T09:53:44.654Z,1.22
2018-02-06T09:56:12.114Z,1.24
2018-02-06T09:58:39.606Z,1.27
2018-02-06T10:01:07.111Z,1.34
2018-02-06T10:03:34.586Z,1.50
2018-02-06T10:06:02.095Z,1.46
2018-02-06T10:08:29.560Z,1.53
2018-02-06T10:10:57.044Z,1.52
2018-02-06T10:13:24.537Z,1.42
2018-02-06T10:15:52.006Z,1.51
2018-02-06T10:18:19.458Z,1.48
2018-02-06T10:20:46.993Z,1.47
2018-02-06T10:23:14.438Z,1.53
2018-02-06T10:25:41.979Z,1.54
2018-02-06T10:28:09.458Z,1.50
2018-02-06T10:30:36.927Z,1.63
2018-02-06T10:33:04.402Z,1.63
2018-02-06T10:35:31.874Z,1.63
2018-02-06T10:37:59.464Z,1.70
2018-02-06T10:40:26.950Z,1.70
2018-02-06T10:42:54.487Z,1.74
2018-02-06T10:45:22.013Z,1.90
2018-02-06T10:47:49.508Z,1.96
2018-02-06T10:50:16.979Z,2.12
2018-02-06T10:52:44.432Z,2.12
2018-02-06T10:55:11.917Z,2.04
2018-02-06T10:57:39.380Z,2.11
2018-02-06T11:00:06.878Z,2.16
2018-02-06T11:02:34.363Z,2.24
2018-02-06T11:05:01.834Z,2.36
2018-02-06T11:07:29.482Z,2.27
2018-02-06T11:09:56.949Z,2.33
2018-02-06T11:12:24.426Z,2.51
2018-02-06T11:14:51.870Z,2.49
2018-02-06T11:17:19.330Z,2.56
2018-02-06T11:19:46.842Z,2.72
2018-02-06T11:22:14.377Z,2.77
2018-02-06T11:24:42.003Z,2.76
2018-02-06T11:27:09.459Z,2.80
2018-02-06T11:29:36.931Z,2.91
2018-02-06T11:32:04.404Z,2.96
2018-02-06T11:34:31.888Z,3.12
2018-02-06T11:36:59.346Z,3.32
2018-02-06T11:39:26.884Z,3.45
2018-02-06T11:41:54.331Z,3.53
2018-02-06T11:44:21.793Z,3.82
2018-02-06T11:46:49.338Z,3.91
2018-02-06T11:49:16.795Z,3.90
2018-02-06T11:51:44.267Z,4.00
2018-02-06T11:54:11.727Z,4.07
2018-02-06T11:56:39.205Z,4.15
2018-02-06T11:59:06.674Z,3.87
2018-02-06T12:01:34.147Z,3.81
2018-02-06T12:04:01.622Z,4.03
2018-02-06T12:06:29.107Z,4.30
2018-02-06T12:08:56.567Z,4.01
2018-02-06T12:11:24.088Z,4.14
2018-02-06T12:13:51.577Z,3.95
2018-02-06T12:16:19.059Z,3.97
2018-02-06T12:18:46.513Z,4.03
2018-02-06T12:21:14.030Z,4.19
2018-02-06T12:23:41.485Z,4.16
2018-02-06T12:26:08.978Z,4.06
2018-02-06T12:28:36.474Z,3.86
2018-02-06T12:31:03.995Z,4.16
2018-02-06T12:33:31.466Z,4.01
2018-02-06T12:35:59.523Z,3.81
2018-02-06T12:38:26.995Z,3.78
2018-02-06T12:40:54.523Z,3.68
2018-02-06T12:43:21.998Z,3.67
2018-02-06T12:45:49.471Z,4.01
2018-02-06T12:48:16.927Z,4.10
2018-02-06T12:50:44.413Z,4.23
2018-02-06T12:53:11.906Z,4.24
2018-02-06T12:55:39.390Z,4.09
2018-02-06T12:58:06.852Z,4.24
2018-02-06T13:00:34.330Z,4.34
2018-02-06T13:03:01.802Z,4.17
2018-02-06T13:05:30.161Z,4.29
2018-02-06T13:07:57.608Z,4.29
2018-02-06T13:10:25.159Z,4.22
2018-02-06T13:12:53.235Z,4.07
2018-02-06T13:15:20.738Z,4.02
2018-02-06T13:17:48.205Z,3.82
2018-02-06T13:20:15.667Z,3.58
2018-02-06T13:22:43.187Z,3.47
2018-02-06T13:25:10.644Z,3.39
2018-02-06T13:27:38.098Z,3.25
2018-02-06T13:30:06.162Z,3.32
2018-02-06T13:32:33.631Z,3.27
2018-02-06T13:35:01.124Z,3.11
2018-02-06T13:37:28.643Z,3.16
2018-02-06T13:39:56.283Z,3.06
2018-02-06T13:42:23.765Z,3.11
2018-02-06T13:44:51.224Z,3.26
2018-02-06T13:47:18.695Z,3.24
2018-02-06T13:49:46.189Z,3.11
2018-02-06T13:52:13.689Z,3.12
2018-02-06T13:54:41.143Z,3.14
2018-02-06T13:57:08.620Z,3.14
2018-02-06T13:59:36.063Z,3.12
2018-02-06T14:02:04.404Z,3.13
2018-02-06T14:04:31.918Z,3.07
2018-02-06T14:06:59.367Z,3.01
2018-02-06T14:09:27.773Z,3.19
2018-02-06T14:11:55.217Z,3.28
2018-02-06T14:14:22.679Z,3.32
2018-02-06T14:16:50.168Z,3.18
2018-02-06T14:19:18.136Z,3.00
2018-02-06T14:21:45.602Z,2.97
2018-02-06T14:24:13.126Z,2.89
2018-02-06T14:26:40.628Z,2.96
2018-02-06T14:29:08.104Z,2.99
2018-02-06T14:31:35.693Z,2.94
2018-02-06T14:34:03.240Z,2.90
2018-02-06T14:36:30.749Z,2.78
2018-02-06T14:38:58.230Z,2.62
2018-02-06T14:41:26.263Z,2.61
2018-02-06T14:43:53.710Z,2.37
2018-02-06T14:46:21.215Z,2.32
2018-02-06T14:48:48.724Z,2.33
2018-02-06T14:51:16.810Z,2.38
2018-02-06T14:53:44.320Z,2.29
2018-02-06T14:56:11.772Z,2.32
2018-02-06T14:58:39.230Z,2.26
2018-02-06T15:01:06.716Z,2.20
2018-02-06T15:03:34.191Z,2.14
2018-02-06T15:06:01.681Z,2.16
2018-02-06T15:08:29.131Z,2.09
2018-02-06T15:10:56.606Z,2.01
2018-02-06T15:13:24.093Z,2.03
2018-02-06T15:15:51.631Z,1.94
2018-02-06T15:18:19.307Z,1.95
2018-02-06T15:20:46.799Z,1.91
2018-02-06T15:23:14.264Z,1.89
2018-02-06T15:25:41.744Z,1.72
2018-02-06T15:28:09.215Z,1.73
2018-02-06T15:30:36.686Z,1.70
2018-02-06T15:33:04.188Z,1.68
2018-02-06T15:35:31.681Z,1.85
2018-02-06T15:37:59.158Z,1.77
2018-02-06T15:40:26.713Z,1.66
2018-02-06T15:42:54.179Z,1.71
2018-02-06T15:45:21.671Z,1.65
2018-02-06T15:47:49.159Z,1.66
2018-02-06T15:50:17.355Z,1.70
2018-02-06T15:52:44.822Z,1.59
2018-02-06T15:55:12.306Z,1.61
2018-02-06T15:57:39.783Z,1.62
2018-02-06T16:00:07.829Z,1.63
2018-02-06T16:02:35.528Z,1.60
2018-02-06T16:05:03.003Z,1.56
2018-02-06T16:07:30.471Z,1.59
2018-02-06T16:09:58.024Z,1.57
2018-02-06T16:12:25.482Z,1.63
2018-02-06T16:14:52.990Z,1.61
2018-02-06T16:17:20.482Z,1.75
2018-02-06T16:19:47.986Z,1.73
2018-02-06T16:22:15.474Z,1.72
2018-02-06T16:24:42.950Z,1.69
2018-02-06T16:27:10.446Z,1.73
2018-02-06T16:29:37.956Z,1.63
2018-02-06T16:32:05.422Z,1.67
2018-02-06T16:34:32.887Z,1.69
2018-02-06T16:37:00.360Z,1.71
2018-02-06T16:39:27.848Z,1.71
2018-02-06T16:41:55.351Z,1.72
2018-02-06T16:44:22.851Z,1.73
2018-02-06T16:46:50.300Z,1.83
2018-02-06T16:49:17.843Z,1.78
2018-02-06T16:51:45.349Z,1.92
2018-02-06T16:54:12.847Z,1.85
2018-02-06T16:56:40.323Z,1.84
2018-02-06T16:59:07.805Z,1.90
2018-02-06T17:01:35.288Z,1.91
2018-02-06T17:04:02.770Z,1.95
2018-02-06T17:06:30.276Z,2.00
2018-02-06T17:08:57.929Z,1.97
2018-02-06T17:11:25.402Z,2.06
2018-02-06T17:13:52.942Z,1.98
2018-02-06T17:16:20.437Z,1.99
2018-02-06T17:18:47.973Z,1.98
2018-02-06T17:21:15.540Z,2.04
2018-02-06T17:23:43.116Z,2.02
2018-02-06T17:26:10.574Z,2.03
2018-02-06T17:28:38.053Z,2.13
2018-02-06T17:31:05.562Z,2.20
2018-02-06T17:33:33.052Z,2.20
2018-02-06T17:36:00.534Z,2.17
2018-02-06T17:38:28.002Z,2.17
2018-02-06T17:40:56.471Z,2.18
2018-02-06T17:43:24.061Z,2.16
2018-02-06T17:45:51.514Z,2.19
2018-02-06T17:48:18.985Z,2.26
2018-02-06T17:50:46.468Z,2.27
2018-02-06T17:53:13.962Z,2.21
2018-02-06T17:55:41.429Z,2.34
2018-02-06T17:58:08.889Z,2.26
2018-02-06T18:00:36.357Z,2.24
2018-02-06T18:03:03.883Z,2.26
2018-02-06T18:05:31.352Z,2.23
2018-02-06T18:07:58.858Z,2.21
2018-02-06T18:10:26.358Z,2.15
2018-02-06T18:12:53.846Z,2.11
2018-02-06T18:15:21.346Z,2.05
2018-02-06T18:17:48.859Z,1.94
2018-02-06T18:20:16.392Z,2.03
2018-02-06T18:22:43.876Z,2.07
2018-02-06T18:25:11.399Z,2.06
2018-02-06T18:27:38.844Z,1.98
2018-02-06T18:30:06.325Z,2.02
2018-02-06T18:32:33.820Z,2.02
2018-02-06T18:35:01.276Z,1.92
2018-02-06T18:37:28.771Z,1.89
2018-02-06T18:39:56.254Z,1.97
2018-02-06T18:42:23.805Z,1.92
2018-02-06T18:44:51.277Z,2.08
2018-02-06T18:47:18.763Z,2.01
2018-02-06T18:49:46.253Z,2.03
2018-02-06T18:52:13.747Z,2.10
2018-02-06T18:54:41.277Z,1.93
2018-02-06T18:57:08.749Z,1.95
2018-02-06T18:59:36.228Z,1.88
2018-02-06T19:02:03.770Z,1.91
2018-02-06T19:04:31.245Z,1.90
2018-02-06T19:06:58.749Z,1.92
2018-02-06T19:09:26.244Z,1.77
2018-02-06T19:11:53.760Z,1.76
2018-02-06T19:14:21.268Z,1.83
2018-02-06T19:16:48.788Z,1.77
2018-02-06T19:19:16.281Z,1.74
2018-02-06T19:21:43.805Z,1.67
2018-02-06T19:24:11.315Z,1.64
2018-02-06T19:26:38.890Z,1.67
2018-02-06T19:29:06.389Z,1.60
2018-02-06T19:31:33.913Z,1.62
2018-02-06T19:34:01.429Z,1.58
2018-02-06T19:36:29.047Z,1.54
2018-02-06T19:38:56.545Z,1.53
2018-02-06T19:41:24.065Z,1.55
2018-02-06T19:43:51.551Z,1.53
2018-02-06T19:46:19.106Z,1.47
2018-02-06T19:48:46.595Z,1.44
2018-02-06T19:51:14.208Z,1.36
2018-02-06T19:53:41.740Z,1.32
2018-02-06T19:56:09.255Z,1.21
2018-02-06T19:58:36.831Z,1.10
2018-02-06T20:01:04.410Z,0.99
2018-02-06T20:03:31.903Z,0.93
2018-02-06T20:05:59.384Z,0.85
2018-02-06T20:08:26.947Z,0.80
2018-02-06T20:10:54.469Z,0.91
2018-02-06T20:13:22.025Z,0.90
2018-02-06T20:15:49.560Z,0.91
2018-02-06T20:18:17.152Z,0.85
2018-02-06T20:20:44.616Z,0.83
2018-02-06T20:23:12.097Z,0.86
2018-02-06T20:25:39.595Z,0.80
2018-02-06T20:28:07.111Z,0.83
2018-02-06T20:30:34.639Z,0.80
2018-02-06T20:33:02.149Z,0.84
2018-02-06T20:35:29.629Z,0.86
2018-02-06T20:37:57.145Z,0.89
2018-02-06T20:40:24.636Z,0.96
2018-02-06T20:42:52.104Z,1.07
2018-02-06T20:45:19.592Z,1.18
2018-02-06T20:47:47.091Z,1.22
2018-02-06T20:50:14.554Z,1.19
2018-02-06T20:52:42.057Z,1.28
2018-02-06T20:55:09.516Z,1.25
2018-02-06T20:57:37.007Z,1.34
2018-02-06T21:00:04.521Z,1.37
2018-02-06T21:02:32.004Z,1.41
2018-02-06T21:04:59.466Z,1.42
2018-02-06T21:07:27.454Z,1.52
2018-02-06T21:09:54.966Z,1.61
2018-02-06T21:12:22.435Z,1.66
2018-02-06T21:14:49.914Z,1.69
2018-02-06T21:17:17.420Z,1.77
2018-02-06T21:19:44.900Z,1.81
2018-02-06T21:22:12.414Z,1.84
2018-02-06T21:24:39.912Z,1.92
2018-02-06T21:27:07.480Z,1.92
2018-02-06T21:29:34.967Z,1.93
2018-02-06T21:32:02.456Z,1.90
2018-02-06T21:34:29.928Z,1.95
2018-02-06T21:36:57.465Z,1.86
2018-02-06T21:39:24.931Z,1.90
2018-02-06T21:41:52.461Z,1.88
2018-02-06T21:44:19.984Z,1.85
2018-02-06T21:46:47.469Z,1.88
2018-02-06T21:49:14.971Z,1.81
2018-02-06T21:51:42.488Z,1.84
2018-02-06T21:54:09.936Z,1.81
2018-02-06T21:56:37.412Z,1.77
2018-02-06T21:59:04.933Z,1.79
2018-02-06T22:01:32.429Z,1.83
2018-02-06T22:03:59.870Z,1.82
2018-02-06T22:06:27.387Z,1.78
2018-02-06T22:08:54.847Z,1.74
2018-02-06T22:11:22.306Z,1.73
2018-02-06T22:13:49.850Z,1.76
2018-02-06T22:16:17.319Z,1.70
2018-02-06T22:18:44.956Z,1.76
2018-02-06T22:21:12.414Z,1.81
2018-02-06T22:23:39.888Z,1.75
2018-02-06T22:26:07.374Z,1.72
2018-02-06T22:28:34.958Z,1.72
2018-02-06T22:31:02.456Z,1.68
2018-02-06T22:33:29.945Z,1.75
2018-02-06T22:35:57.438Z,1.83
2018-02-06T22:38:24.903Z,1.75
2018-02-06T22:40:52.422Z,1.69
2018-02-06T22:43:19.971Z,1.76
2018-02-06T22:45:47.505Z,1.76
2018-02-06T22:48:14.994Z,1.79
2018-02-06T22:50:42.460Z,1.75
2018-02-06T22:53:09.962Z,1.79
2018-02-06T22:55:37.440Z,1.79
2018-02-06T22:58:04.923Z,1.72
2018-02-06T23:00:32.390Z,1.78
2018-02-06T23:02:59.900Z,1.71
2018-02-06T23:05:27.387Z,1.73
2018-02-06T23:07:54.850Z,1.76
2018-02-06T23:10:22.376Z,1.73
2018-02-06T23:12:49.895Z,1.77
2018-02-06T23:15:17.410Z,1.70
2018-02-06T23:17:44.894Z,1.72
2018-02-06T23:20:12.406Z,1.77
2018-02-06T23:22:39.873Z,1.76
2018-02-06T23:25:07.363Z,1.75
2018-02-06T23:27:34.823Z,1.72
2018-02-06T23:30:02.304Z,1.72
2018-02-06T23:32:29.776Z,1.66
2018-02-06T23:34:57.338Z,1.62
2018-02-06T23:37:24.840Z,1.70
2018-02-06T23:39:52.353Z,1.73
2018-02-06T23:42:19.827Z,1.72
2018-02-06T23:44:47.338Z,1.75
2018-02-06T23:47:14.840Z,1.67
2018-02-06T23:49:42.326Z,1.61
2018-02-06T23:52:09.800Z,1.68
2018-02-06T23:54:37.284Z,1.73
2018-02-06T23:57:04.792Z,1.70
2018-02-06T23:59:32.320Z,1.64
